createdAt,value
2018-04-27T00:00:56.580Z,978.63
2018-04-27T00:01:56.485Z,978.60
2018-04-27T00:02:56.417Z,978.60
2018-04-27T00:03:56.330Z,978.60
2018-04-27T00:04:56.263Z,978.60
2018-04-27T00:05:56.172Z,978.60
2018-04-27T00:06:56.099Z,978.57
2018-04-27T00:07:56.014Z,978.61
2018-04-27T00:08:55.938Z,978.55
2018-04-27T00:09:55.856Z,978.55
2018-04-27T00:10:55.782Z,978.57
2018-04-27T00:11:55.689Z,978.56
2018-04-27T00:12:55.624Z,978.58
2018-04-27T00:13:55.538Z,978.61
2018-04-27T00:14:55.467Z,978.62
2018-04-27T00:15:55.379Z,978.59
2018-04-27T00:16:55.306Z,978.62
2018-04-27T00:17:55.218Z,978.60
2018-04-27T00:18:55.147Z,978.59
2018-04-27T00:19:55.065Z,978.56
2018-04-27T00:20:54.991Z,978.57
2018-04-27T00:21:54.908Z,978.54
2018-04-27T00:22:54.836Z,978.53
2018-04-27T00:23:54.749Z,978.52
2018-04-27T00:24:54.673Z,978.47
2018-04-27T00:25:54.591Z,978.45
2018-04-27T00:26:54.513Z,978.45
2018-04-27T00:27:54.445Z,978.44
2018-04-27T00:28:54.353Z,978.42
2018-04-27T00:29:54.266Z,978.43
2018-04-27T00:30:55.199Z,978.43
2018-04-27T00:31:54.119Z,978.47
2018-04-27T00:32:54.040Z,978.46
2018-04-27T00:33:53.955Z,978.45
2018-04-27T00:34:53.887Z,978.44
2018-04-27T00:35:53.789Z,978.50
2018-04-27T00:36:54.728Z,978.45
2018-04-27T00:37:53.636Z,978.48
2018-04-27T00:38:53.570Z,978.46
2018-04-27T00:39:53.476Z,978.49
2018-04-27T00:40:53.414Z,978.49
2018-04-27T00:41:53.320Z,978.49
2018-04-27T00:42:53.265Z,978.47
2018-04-27T00:43:53.158Z,978.49
2018-04-27T00:44:53.096Z,978.47
2018-04-27T00:45:53.009Z,978.45
2018-04-27T00:46:52.932Z,978.45
2018-04-27T00:47:52.849Z,978.42
2018-04-27T00:48:52.773Z,978.42
2018-04-27T00:49:52.687Z,978.44
2018-04-27T00:50:52.613Z,978.42
2018-04-27T00:51:52.530Z,978.41
2018-04-27T00:52:52.469Z,978.43
2018-04-27T00:53:52.372Z,978.43
2018-04-27T00:54:52.298Z,978.41
2018-04-27T00:55:52.207Z,978.40
2018-04-27T00:56:52.139Z,978.37
2018-04-27T00:57:52.050Z,978.37
2018-04-27T00:58:51.980Z,978.38
2018-04-27T00:59:51.900Z,978.39
2018-04-27T01:00:51.819Z,978.38
2018-04-27T01:01:51.734Z,978.39
2018-04-27T01:02:51.666Z,978.37
2018-04-27T01:03:51.575Z,978.38
2018-04-27T01:04:51.507Z,978.35
2018-04-27T01:05:51.417Z,978.34
2018-04-27T01:06:51.342Z,978.32
2018-04-27T01:07:51.267Z,978.37
2018-04-27T01:08:51.202Z,978.35
2018-04-27T01:09:51.101Z,978.39
2018-04-27T01:10:51.028Z,978.31
2018-04-27T01:11:50.948Z,978.32
2018-04-27T01:12:50.870Z,978.36
2018-04-27T01:13:50.792Z,978.36
2018-04-27T01:14:50.720Z,978.37
2018-04-27T01:15:50.623Z,978.33
2018-04-27T01:16:50.548Z,978.28
2018-04-27T01:17:50.463Z,978.27
2018-04-27T01:18:50.391Z,978.32
2018-04-27T01:19:50.306Z,978.26
2018-04-27T01:20:50.227Z,978.29
2018-04-27T01:21:50.146Z,978.28
2018-04-27T01:22:50.074Z,978.25
2018-04-27T01:23:49.999Z,978.22
2018-04-27T01:24:49.914Z,978.22
2018-04-27T01:25:49.825Z,978.21
2018-04-27T01:26:49.755Z,978.22
2018-04-27T01:27:49.675Z,978.20
2018-04-27T01:28:49.594Z,978.21
2018-04-27T01:29:49.515Z,978.21
2018-04-27T01:30:49.444Z,978.18
2018-04-27T01:31:49.359Z,978.20
2018-04-27T01:32:49.284Z,978.17
2018-04-27T01:33:49.198Z,978.18
2018-04-27T01:34:49.118Z,978.22
2018-04-27T01:35:49.031Z,978.25
2018-04-27T01:36:48.960Z,978.26
2018-04-27T01:37:48.870Z,978.20
2018-04-27T01:38:49.808Z,978.24
2018-04-27T01:39:48.714Z,978.23
2018-04-27T01:40:48.642Z,978.24
2018-04-27T01:41:48.554Z,978.27
2018-04-27T01:42:48.482Z,978.29
2018-04-27T01:43:48.390Z,978.31
2018-04-27T01:44:48.327Z,978.29
2018-04-27T01:45:48.235Z,978.24
2018-04-27T01:46:48.160Z,978.26
2018-04-27T01:47:48.073Z,978.26
2018-04-27T01:48:48.014Z,978.23
2018-04-27T01:49:47.916Z,978.26
2018-04-27T01:50:47.842Z,978.24
2018-04-27T01:51:47.761Z,978.23
2018-04-27T01:52:47.691Z,978.22
2018-04-27T01:53:47.602Z,978.23
2018-04-27T01:54:47.529Z,978.20
2018-04-27T01:55:47.447Z,978.17
2018-04-27T01:56:47.373Z,978.19
2018-04-27T01:57:47.287Z,978.19
2018-04-27T01:58:47.208Z,978.13
2018-04-27T01:59:47.122Z,978.13
2018-04-27T02:00:47.057Z,978.16
2018-04-27T02:01:46.960Z,978.14
2018-04-27T02:02:46.886Z,978.11
2018-04-27T02:03:46.887Z,978.09
2018-04-27T02:04:46.735Z,978.09
2018-04-27T02:05:46.641Z,978.08
2018-04-27T02:06:46.571Z,978.08
2018-04-27T02:07:46.484Z,978.04
2018-04-27T02:08:46.420Z,978.07
2018-04-27T02:09:46.339Z,978.08
2018-04-27T02:10:46.253Z,978.11
2018-04-27T02:11:46.165Z,978.04
2018-04-27T02:12:46.099Z,978.02
2018-04-27T02:13:46.009Z,977.99
2018-04-27T02:14:45.939Z,977.98
2018-04-27T02:15:45.844Z,977.96
2018-04-27T02:16:45.775Z,978.00
2018-04-27T02:17:45.685Z,977.99
2018-04-27T02:18:45.611Z,977.98
2018-04-27T02:19:45.527Z,977.97
2018-04-27T02:20:45.457Z,978.05
2018-04-27T02:21:45.364Z,978.02
2018-04-27T02:22:46.296Z,978.00
2018-04-27T02:23:45.211Z,978.04
2018-04-27T02:24:45.135Z,977.98
2018-04-27T02:25:45.052Z,978.00
2018-04-27T02:26:44.975Z,978.02
2018-04-27T02:27:44.889Z,978.00
2018-04-27T02:28:44.816Z,978.02
2018-04-27T02:29:44.726Z,977.99
2018-04-27T02:30:44.653Z,978.01
2018-04-27T02:31:44.570Z,977.99
2018-04-27T02:32:44.515Z,977.95
2018-04-27T02:33:44.416Z,978.01
2018-04-27T02:34:44.334Z,977.94
2018-04-27T02:35:44.247Z,977.92
2018-04-27T02:36:44.176Z,977.94
2018-04-27T02:37:44.086Z,977.95
2018-04-27T02:38:44.012Z,977.95
2018-04-27T02:39:43.926Z,977.95
2018-04-27T02:40:43.923Z,977.96
2018-04-27T02:41:43.769Z,977.99
2018-04-27T02:42:43.696Z,978.00
2018-04-27T02:43:43.608Z,977.97
2018-04-27T02:44:43.534Z,977.97
2018-04-27T02:45:43.451Z,977.96
2018-04-27T02:46:43.373Z,977.98
2018-04-27T02:47:43.285Z,978.01
2018-04-27T02:48:43.222Z,977.95
2018-04-27T02:49:43.127Z,977.96
2018-04-27T02:50:43.053Z,977.94
2018-04-27T02:51:42.967Z,977.94
2018-04-27T02:52:42.893Z,977.94
2018-04-27T02:53:42.812Z,977.85
2018-04-27T02:54:43.733Z,977.88
2018-04-27T02:55:42.653Z,977.88
2018-04-27T02:56:42.573Z,977.86
2018-04-27T02:57:42.488Z,977.86
2018-04-27T02:58:42.418Z,977.85
2018-04-27T02:59:42.330Z,977.83
2018-04-27T03:00:42.254Z,977.81
2018-04-27T03:01:42.165Z,977.80
2018-04-27T03:02:42.093Z,977.79
2018-04-27T03:03:42.027Z,977.81
2018-04-27T03:04:41.931Z,977.81
2018-04-27T03:05:41.857Z,977.80
2018-04-27T03:06:41.775Z,977.82
2018-04-27T03:07:41.691Z,977.78
2018-04-27T03:08:41.618Z,977.75
2018-04-27T03:09:41.529Z,977.73
2018-04-27T03:10:41.452Z,977.71
2018-04-27T03:11:41.365Z,977.70
2018-04-27T03:12:41.297Z,977.69
2018-04-27T03:13:41.213Z,977.66
2018-04-27T03:14:41.137Z,977.62
2018-04-27T03:15:41.047Z,977.64
2018-04-27T03:16:40.979Z,977.58
2018-04-27T03:17:40.885Z,977.56
2018-04-27T03:18:40.820Z,977.58
2018-04-27T03:19:40.725Z,977.58
2018-04-27T03:20:40.654Z,977.53
2018-04-27T03:21:40.564Z,977.54
2018-04-27T03:22:40.493Z,977.49
2018-04-27T03:23:40.415Z,977.54
2018-04-27T03:24:40.335Z,977.51
2018-04-27T03:25:40.241Z,977.54
2018-04-27T03:26:41.177Z,977.50
2018-04-27T03:27:40.084Z,977.45
2018-04-27T03:28:40.015Z,977.46
2018-04-27T03:29:39.929Z,977.49
2018-04-27T03:30:39.851Z,977.50
2018-04-27T03:31:39.773Z,977.44
2018-04-27T03:32:39.694Z,977.44
2018-04-27T03:33:39.601Z,977.41
2018-04-27T03:34:39.528Z,977.37
2018-04-27T03:35:39.439Z,977.34
2018-04-27T03:36:39.377Z,977.33
2018-04-27T03:37:39.291Z,977.32
2018-04-27T03:38:39.215Z,977.32
2018-04-27T03:39:39.131Z,977.27
2018-04-27T03:40:39.046Z,977.28
2018-04-27T03:41:38.961Z,977.31
2018-04-27T03:42:38.888Z,977.33
2018-04-27T03:43:38.800Z,977.27
2018-04-27T03:44:38.724Z,977.27
2018-04-27T03:45:38.642Z,977.26
2018-04-27T03:46:38.559Z,977.28
2018-04-27T03:47:38.479Z,977.24
2018-04-27T03:48:38.410Z,977.28
2018-04-27T03:49:38.319Z,977.26
2018-04-27T03:50:38.248Z,977.19
2018-04-27T03:51:38.163Z,977.22
2018-04-27T03:52:38.082Z,977.19
2018-04-27T03:53:38.001Z,977.11
2018-04-27T03:54:37.923Z,977.08
2018-04-27T03:55:37.834Z,977.04
2018-04-27T03:56:37.775Z,977.03
2018-04-27T03:57:37.678Z,976.97
2018-04-27T03:58:37.604Z,976.99
2018-04-27T03:59:37.520Z,976.93
2018-04-27T04:00:37.454Z,976.95
2018-04-27T04:01:37.354Z,976.96
2018-04-27T04:02:37.286Z,976.95
2018-04-27T04:03:37.195Z,976.93
2018-04-27T04:04:37.119Z,976.95
2018-04-27T04:05:37.030Z,976.92
2018-04-27T04:06:36.955Z,976.94
2018-04-27T04:07:36.868Z,976.94
2018-04-27T04:08:36.799Z,976.92
2018-04-27T04:09:36.710Z,976.94
2018-04-27T04:10:36.637Z,976.90
2018-04-27T04:11:36.549Z,976.90
2018-04-27T04:12:36.475Z,976.87
2018-04-27T04:13:36.388Z,976.87
2018-04-27T04:14:36.318Z,976.91
2018-04-27T04:15:36.227Z,976.90
2018-04-27T04:16:36.156Z,976.85
2018-04-27T04:17:36.067Z,976.85
2018-04-27T04:18:35.993Z,976.85
2018-04-27T04:19:35.907Z,976.83
2018-04-27T04:20:35.834Z,976.82
2018-04-27T04:21:35.742Z,976.82
2018-04-27T04:22:35.673Z,976.84
2018-04-27T04:23:35.582Z,976.84
2018-04-27T04:24:35.513Z,976.81
2018-04-27T04:25:35.424Z,976.84
2018-04-27T04:26:35.346Z,976.81
2018-04-27T04:27:35.262Z,976.82
2018-04-27T04:28:35.191Z,976.83
2018-04-27T04:29:35.097Z,976.83
2018-04-27T04:30:35.023Z,976.78
2018-04-27T04:31:34.937Z,976.83
2018-04-27T04:32:34.867Z,976.84
2018-04-27T04:33:34.777Z,976.84
2018-04-27T04:34:34.704Z,976.92
2018-04-27T04:35:34.625Z,976.89
2018-04-27T04:36:34.562Z,976.88
2018-04-27T04:37:34.455Z,976.88
2018-04-27T04:38:34.391Z,976.89
2018-04-27T04:39:34.301Z,976.85
2018-04-27T04:40:34.237Z,976.90
2018-04-27T04:41:34.142Z,976.92
2018-04-27T04:42:34.065Z,976.90
2018-04-27T04:43:33.972Z,976.90
2018-04-27T04:44:33.950Z,976.90
2018-04-27T04:45:33.812Z,976.93
2018-04-27T04:46:33.757Z,976.92
2018-04-27T04:47:33.646Z,976.93
2018-04-27T04:48:33.669Z,976.94
2018-04-27T04:49:33.484Z,976.92
2018-04-27T04:50:33.477Z,976.90
2018-04-27T04:51:33.327Z,976.91
2018-04-27T04:52:33.320Z,976.86
2018-04-27T04:53:33.168Z,976.85
2018-04-27T04:54:33.195Z,976.85
2018-04-27T04:55:33.002Z,976.84
2018-04-27T04:56:33.008Z,976.79
2018-04-27T04:57:32.841Z,976.79
2018-04-27T04:58:32.812Z,976.82
2018-04-27T04:59:32.683Z,976.81
2018-04-27T05:00:32.607Z,976.80
2018-04-27T05:01:32.520Z,976.79
2018-04-27T05:02:32.535Z,976.79
2018-04-27T05:03:32.354Z,976.83
2018-04-27T05:04:32.341Z,976.84
2018-04-27T05:05:32.206Z,976.84
2018-04-27T05:06:32.156Z,976.85
2018-04-27T05:07:32.044Z,976.84
2018-04-27T05:08:32.060Z,976.85
2018-04-27T05:09:31.875Z,976.85
2018-04-27T05:10:31.877Z,976.84
2018-04-27T05:11:31.716Z,976.85
2018-04-27T05:12:31.676Z,976.90
2018-04-27T05:13:31.552Z,976.90
2018-04-27T05:14:31.485Z,976.91
2018-04-27T05:15:31.394Z,976.92
2018-04-27T05:16:31.336Z,976.88
2018-04-27T05:17:31.231Z,976.93
2018-04-27T05:18:31.165Z,976.91
2018-04-27T05:19:31.077Z,976.94
2018-04-27T05:20:30.997Z,976.89
2018-04-27T05:21:30.908Z,976.88
2018-04-27T05:22:30.839Z,976.89
2018-04-27T05:23:30.750Z,976.88
2018-04-27T05:24:30.687Z,976.84
2018-04-27T05:25:30.595Z,976.87
2018-04-27T05:26:30.516Z,976.82
2018-04-27T05:27:30.428Z,976.82
2018-04-27T05:28:30.358Z,976.83
2018-04-27T05:29:30.267Z,976.85
2018-04-27T05:30:30.195Z,976.84
2018-04-27T05:31:30.109Z,976.88
2018-04-27T05:32:30.032Z,976.85
2018-04-27T05:33:29.945Z,976.85
2018-04-27T05:34:29.869Z,976.86
2018-04-27T05:35:29.792Z,976.87
2018-04-27T05:36:29.708Z,976.87
2018-04-27T05:37:29.697Z,976.81
2018-04-27T05:38:29.545Z,976.85
2018-04-27T05:39:29.503Z,976.84
2018-04-27T05:40:29.387Z,976.83
2018-04-27T05:41:29.416Z,976.79
2018-04-27T05:42:29.227Z,976.78
2018-04-27T05:43:29.221Z,976.78
2018-04-27T05:44:29.065Z,976.79
2018-04-27T05:45:29.031Z,976.76
2018-04-27T05:46:28.905Z,976.81
2018-04-27T05:47:28.942Z,976.76
2018-04-27T05:48:28.753Z,976.75
2018-04-27T05:49:28.750Z,976.75
2018-04-27T05:50:28.585Z,976.75
2018-04-27T05:51:28.518Z,976.72
2018-04-27T05:52:28.423Z,976.71
2018-04-27T05:53:28.370Z,976.69
2018-04-27T05:54:28.261Z,976.70
2018-04-27T05:55:28.287Z,976.64
2018-04-27T05:56:28.107Z,976.63
2018-04-27T05:57:28.099Z,976.60
2018-04-27T05:58:27.943Z,976.59
2018-04-27T05:59:27.896Z,976.57
2018-04-27T06:00:27.785Z,976.55
2018-04-27T06:01:27.810Z,976.54
2018-04-27T06:02:27.629Z,976.52
2018-04-27T06:03:27.617Z,976.52
2018-04-27T06:04:27.471Z,976.49
2018-04-27T06:05:27.430Z,976.52
2018-04-27T06:06:27.304Z,976.51
2018-04-27T06:07:27.340Z,976.48
2018-04-27T06:08:27.142Z,976.48
2018-04-27T06:09:27.151Z,976.49
2018-04-27T06:10:26.986Z,976.49
2018-04-27T06:11:26.911Z,976.47
2018-04-27T06:12:26.863Z,976.48
2018-04-27T06:13:26.744Z,976.50
2018-04-27T06:14:26.780Z,976.49
2018-04-27T06:15:26.585Z,976.50
2018-04-27T06:16:26.587Z,976.45
2018-04-27T06:17:26.425Z,976.48
2018-04-27T06:18:26.391Z,976.44
2018-04-27T06:19:26.271Z,976.45
2018-04-27T06:20:26.193Z,976.39
2018-04-27T06:21:26.108Z,976.40
2018-04-27T06:22:26.114Z,976.36
2018-04-27T06:23:25.950Z,976.34
2018-04-27T06:24:25.926Z,976.33
2018-04-27T06:25:25.797Z,976.33
2018-04-27T06:26:25.732Z,976.33
2018-04-27T06:27:25.631Z,976.36
2018-04-27T06:28:25.643Z,976.34
2018-04-27T06:29:25.492Z,976.35
2018-04-27T06:30:25.450Z,976.37
2018-04-27T06:31:25.309Z,976.33
2018-04-27T06:32:25.260Z,976.34
2018-04-27T06:33:25.154Z,976.36
2018-04-27T06:34:25.175Z,976.37
2018-04-27T06:35:25.001Z,976.34
2018-04-27T06:36:24.981Z,976.37
2018-04-27T06:37:24.836Z,976.37
2018-04-27T06:38:24.795Z,976.36
2018-04-27T06:39:24.738Z,976.34
2018-04-27T06:40:24.699Z,976.34
2018-04-27T06:41:24.518Z,976.31
2018-04-27T06:42:24.515Z,976.34
2018-04-27T06:43:24.359Z,976.34
2018-04-27T06:44:24.423Z,976.32
2018-04-27T06:45:24.204Z,976.36
2018-04-27T06:46:24.203Z,976.33
2018-04-27T06:47:24.047Z,976.34
2018-04-27T06:48:24.008Z,976.33
2018-04-27T06:49:23.885Z,976.27
2018-04-27T06:50:23.917Z,976.31
2018-04-27T06:51:23.726Z,976.28
2018-04-27T06:52:23.726Z,976.26
2018-04-27T06:53:23.569Z,976.27
2018-04-27T06:54:23.531Z,976.27
2018-04-27T06:55:23.414Z,976.23
2018-04-27T06:56:23.447Z,976.22
2018-04-27T06:57:23.254Z,976.19
2018-04-27T06:58:23.264Z,976.22
2018-04-27T06:59:23.124Z,976.20
2018-04-27T07:00:23.074Z,976.20
2018-04-27T07:01:22.941Z,976.22
2018-04-27T07:02:22.880Z,976.18
2018-04-27T07:03:22.805Z,976.20
2018-04-27T07:04:22.790Z,976.16
2018-04-27T07:05:22.711Z,976.16
2018-04-27T07:06:22.602Z,976.12
2018-04-27T07:07:22.475Z,976.11
2018-04-27T07:08:22.503Z,976.12
2018-04-27T07:09:22.323Z,976.12
2018-04-27T07:10:22.316Z,976.14
2018-04-27T07:11:22.160Z,976.07
2018-04-27T07:12:22.123Z,976.08
2018-04-27T07:13:22.011Z,976.06
2018-04-27T07:14:22.037Z,976.01
2018-04-27T07:15:21.853Z,976.03
2018-04-27T07:16:21.841Z,976.00
2018-04-27T07:17:21.690Z,976.02
2018-04-27T07:18:21.649Z,976.04
2018-04-27T07:19:21.528Z,976.02
2018-04-27T07:20:21.561Z,976.04
2018-04-27T07:21:21.384Z,976.02
2018-04-27T07:22:21.364Z,976.05
2018-04-27T07:23:21.235Z,976.02
2018-04-27T07:24:21.175Z,976.01
2018-04-27T07:25:21.064Z,976.01
2018-04-27T07:26:21.086Z,975.99
2018-04-27T07:27:20.912Z,976.01
2018-04-27T07:28:20.894Z,976.01
2018-04-27T07:29:20.761Z,975.99
2018-04-27T07:30:20.702Z,975.98
2018-04-27T07:31:20.603Z,975.98
2018-04-27T07:32:20.614Z,976.02
2018-04-27T07:33:20.448Z,975.99
2018-04-27T07:34:20.424Z,976.01
2018-04-27T07:35:20.289Z,976.00
2018-04-27T07:36:20.334Z,975.96
2018-04-27T07:37:20.137Z,975.96
2018-04-27T07:38:20.145Z,975.89
2018-04-27T07:39:19.986Z,975.88
2018-04-27T07:40:19.951Z,975.89
2018-04-27T07:41:19.834Z,975.88
2018-04-27T07:42:19.858Z,975.89
2018-04-27T07:43:19.679Z,975.90
2018-04-27T07:44:19.667Z,975.89
2018-04-27T07:45:19.623Z,975.90
2018-04-27T07:46:19.482Z,975.89
2018-04-27T07:47:19.376Z,975.86
2018-04-27T07:48:19.385Z,975.82
2018-04-27T07:49:19.220Z,975.75
2018-04-27T07:50:19.207Z,975.78
2018-04-27T07:51:19.064Z,975.73
2018-04-27T07:52:19.114Z,975.71
2018-04-27T07:53:18.916Z,975.70
2018-04-27T07:54:18.918Z,975.69
2018-04-27T07:55:18.773Z,975.66
2018-04-27T07:56:18.728Z,975.63
2018-04-27T07:57:18.609Z,975.59
2018-04-27T07:58:18.635Z,975.54
2018-04-27T07:59:18.464Z,975.54
2018-04-27T08:00:18.444Z,975.54
2018-04-27T08:01:18.307Z,975.54
2018-04-27T08:02:18.341Z,975.54
2018-04-27T08:03:18.153Z,975.59
2018-04-27T08:04:18.158Z,975.57
2018-04-27T08:05:18.007Z,975.57
2018-04-27T08:06:17.974Z,975.55
2018-04-27T08:07:17.934Z,975.52
2018-04-27T08:08:17.881Z,975.54
2018-04-27T08:09:17.709Z,975.53
2018-04-27T08:10:17.691Z,975.48
2018-04-27T08:11:17.598Z,975.49
2018-04-27T08:12:17.494Z,975.55
2018-04-27T08:13:17.415Z,975.49
2018-04-27T08:14:17.416Z,975.55
2018-04-27T08:15:17.258Z,975.51
2018-04-27T08:16:17.221Z,975.49
2018-04-27T08:17:17.107Z,975.44
2018-04-27T08:18:17.132Z,975.54
2018-04-27T08:19:16.957Z,975.46
2018-04-27T08:20:16.937Z,975.53
2018-04-27T08:21:16.808Z,975.49
2018-04-27T08:22:16.855Z,975.51
2018-04-27T08:23:16.664Z,975.50
2018-04-27T08:24:16.659Z,975.51
2018-04-27T08:25:16.507Z,975.46
2018-04-27T08:26:16.464Z,975.49
2018-04-27T08:27:16.370Z,975.47
2018-04-27T08:28:16.374Z,975.34
2018-04-27T08:29:16.210Z,975.40
2018-04-27T08:30:16.222Z,975.36
2018-04-27T08:31:16.061Z,975.37
2018-04-27T08:32:16.094Z,975.29
2018-04-27T08:33:15.918Z,975.33
2018-04-27T08:34:15.901Z,975.30
2018-04-27T08:35:15.769Z,975.28
2018-04-27T08:36:15.792Z,975.26
2018-04-27T08:37:15.617Z,975.22
2018-04-27T08:38:16.650Z,975.26
2018-04-27T08:39:15.472Z,975.26
2018-04-27T08:40:15.427Z,975.29
2018-04-27T08:41:15.327Z,975.22
2018-04-27T08:42:15.346Z,975.16
2018-04-27T08:43:15.175Z,975.16
2018-04-27T08:44:15.149Z,975.16
2018-04-27T08:45:15.029Z,975.14
2018-04-27T08:46:15.063Z,975.13
2018-04-27T08:47:14.886Z,975.15
2018-04-27T08:48:14.867Z,975.15
2018-04-27T08:49:14.733Z,975.14
2018-04-27T08:50:14.683Z,975.10
2018-04-27T08:51:14.587Z,975.05
2018-04-27T08:52:14.587Z,975.01
2018-04-27T08:53:14.442Z,974.98
2018-04-27T08:54:14.402Z,975.07
2018-04-27T08:55:14.298Z,974.98
2018-04-27T08:56:14.308Z,974.98
2018-04-27T08:57:14.152Z,975.01
2018-04-27T08:58:14.118Z,974.96
2018-04-27T08:59:14.000Z,974.92
2018-04-27T09:00:14.025Z,974.94
2018-04-27T09:01:13.856Z,974.89
2018-04-27T09:02:13.840Z,974.90
2018-04-27T09:03:13.711Z,974.84
2018-04-27T09:04:13.752Z,974.86
2018-04-27T09:05:13.569Z,974.94
2018-04-27T09:06:13.583Z,974.84
2018-04-27T09:07:13.422Z,974.84
2018-04-27T09:08:13.365Z,974.82
2018-04-27T09:09:13.275Z,974.89
2018-04-27T09:10:13.283Z,974.88
2018-04-27T09:11:13.150Z,974.82
2018-04-27T09:12:13.083Z,974.84
2018-04-27T09:13:12.984Z,974.78
2018-04-27T09:14:12.998Z,974.81
2018-04-27T09:15:12.839Z,974.77
2018-04-27T09:16:12.831Z,974.75
2018-04-27T09:17:12.695Z,974.77
2018-04-27T09:18:12.717Z,974.75
2018-04-27T09:19:12.552Z,974.77
2018-04-27T09:20:12.522Z,974.77
2018-04-27T09:21:12.408Z,974.77
2018-04-27T09:22:12.439Z,974.69
2018-04-27T09:23:12.260Z,974.66
2018-04-27T09:24:12.249Z,974.61
2018-04-27T09:25:12.113Z,974.70
2018-04-27T09:26:12.155Z,974.71
2018-04-27T09:27:11.970Z,974.64
2018-04-27T09:28:11.972Z,974.56
2018-04-27T09:29:11.835Z,974.58
2018-04-27T09:30:11.878Z,974.55
2018-04-27T09:31:11.687Z,974.54
2018-04-27T09:32:11.751Z,974.54
2018-04-27T09:33:11.534Z,974.58
2018-04-27T09:34:11.492Z,974.53
2018-04-27T09:35:11.395Z,974.48
2018-04-27T09:36:11.404Z,974.51
2018-04-27T09:37:11.249Z,974.42
2018-04-27T09:38:11.214Z,974.47
2018-04-27T09:39:11.111Z,974.45
2018-04-27T09:40:11.126Z,974.42
2018-04-27T09:41:10.964Z,974.38
2018-04-27T09:42:10.932Z,974.35
2018-04-27T09:43:10.819Z,974.35
2018-04-27T09:44:10.842Z,974.34
2018-04-27T09:45:10.676Z,974.34
2018-04-27T09:46:10.649Z,974.30
2018-04-27T09:47:10.539Z,974.31
2018-04-27T09:48:10.561Z,974.32
2018-04-27T09:49:10.392Z,974.28
2018-04-27T09:50:10.367Z,974.32
2018-04-27T09:51:10.248Z,974.31
2018-04-27T09:52:10.297Z,974.22
2018-04-27T09:53:10.101Z,974.23
2018-04-27T09:54:10.095Z,974.18
2018-04-27T09:55:09.958Z,974.19
2018-04-27T09:56:10.003Z,974.14
2018-04-27T09:57:09.816Z,974.10
2018-04-27T09:58:09.808Z,974.12
2018-04-27T09:59:09.672Z,974.10
2018-04-27T10:00:09.715Z,974.07
2018-04-27T10:01:09.535Z,974.15
2018-04-27T10:02:09.526Z,974.20
2018-04-27T10:03:09.387Z,974.07
2018-04-27T10:04:09.334Z,974.09
2018-04-27T10:05:09.248Z,974.10
2018-04-27T10:06:09.245Z,974.02
2018-04-27T10:07:09.106Z,974.00
2018-04-27T10:08:09.050Z,974.05
2018-04-27T10:09:08.959Z,974.07
2018-04-27T10:10:08.966Z,974.03
2018-04-27T10:11:08.825Z,974.01
2018-04-27T10:12:08.771Z,973.99
2018-04-27T10:13:08.674Z,974.02
2018-04-27T10:14:08.686Z,973.94
2018-04-27T10:15:08.542Z,973.98
2018-04-27T10:16:08.490Z,973.91
2018-04-27T10:17:08.394Z,973.84
2018-04-27T10:18:08.405Z,973.88
2018-04-27T10:19:08.253Z,973.89
2018-04-27T10:20:08.227Z,973.90
2018-04-27T10:21:08.139Z,973.87
2018-04-27T10:22:08.129Z,973.83
2018-04-27T10:23:07.966Z,973.82
2018-04-27T10:24:07.934Z,973.79
2018-04-27T10:25:07.822Z,973.74
2018-04-27T10:26:07.844Z,973.78
2018-04-27T10:27:07.686Z,973.63
2018-04-27T10:28:07.653Z,973.67
2018-04-27T10:29:07.543Z,973.62
2018-04-27T10:30:07.562Z,973.63
2018-04-27T10:31:07.399Z,973.69
2018-04-27T10:32:07.374Z,973.63
2018-04-27T10:33:07.252Z,973.57
2018-04-27T10:34:07.282Z,973.54
2018-04-27T10:35:07.118Z,973.52
2018-04-27T10:36:07.090Z,973.48
2018-04-27T10:37:06.971Z,973.50
2018-04-27T10:38:07.003Z,973.45
2018-04-27T10:39:06.829Z,973.44
2018-04-27T10:40:06.847Z,973.45
2018-04-27T10:41:06.696Z,973.45
2018-04-27T10:42:06.724Z,973.40
2018-04-27T10:43:06.632Z,973.40
2018-04-27T10:44:06.530Z,973.39
2018-04-27T10:45:06.406Z,973.38
2018-04-27T10:46:06.439Z,973.39
2018-04-27T10:47:06.267Z,973.37
2018-04-27T10:48:10.856Z,973.29
2018-04-27T10:49:06.122Z,973.24
2018-04-27T10:50:10.873Z,973.08
2018-04-27T10:51:05.989Z,973.23
2018-04-27T10:52:06.993Z,973.19
2018-04-27T10:53:05.842Z,973.17
2018-04-27T10:54:05.879Z,973.19
2018-04-27T10:55:05.704Z,973.18
2018-04-27T10:56:05.696Z,973.15
2018-04-27T10:57:05.559Z,973.14
2018-04-27T10:58:05.598Z,973.20
2018-04-27T10:59:05.423Z,973.18
2018-04-27T11:00:05.408Z,973.16
2018-04-27T11:01:05.279Z,973.16
2018-04-27T11:02:05.323Z,973.12
2018-04-27T11:03:05.140Z,973.14
2018-04-27T11:04:05.126Z,973.07
2018-04-27T11:05:04.999Z,973.02
2018-04-27T11:06:05.040Z,973.00
2018-04-27T11:07:04.862Z,973.02
2018-04-27T11:08:04.846Z,972.95
2018-04-27T11:09:04.720Z,972.95
2018-04-27T11:10:04.754Z,972.90
2018-04-27T11:11:04.669Z,972.95
2018-04-27T11:12:04.566Z,972.96
2018-04-27T11:13:04.439Z,972.93
2018-04-27T11:14:04.477Z,972.84
2018-04-27T11:15:04.301Z,972.90
2018-04-27T11:16:04.286Z,972.89
2018-04-27T11:17:04.187Z,972.84
2018-04-27T11:18:04.198Z,972.80
2018-04-27T11:19:04.020Z,972.78
2018-04-27T11:20:04.007Z,972.75
2018-04-27T11:21:03.880Z,972.71
2018-04-27T11:22:03.913Z,972.71
2018-04-27T11:23:03.741Z,972.70
2018-04-27T11:24:03.726Z,972.68
2018-04-27T11:25:03.604Z,972.75
2018-04-27T11:26:03.665Z,972.69
2018-04-27T11:27:03.461Z,972.68
2018-04-27T11:28:03.443Z,972.59
2018-04-27T11:29:03.320Z,972.66
2018-04-27T11:30:03.356Z,972.57
2018-04-27T11:31:03.182Z,972.60
2018-04-27T11:32:03.164Z,972.60
2018-04-27T11:33:03.043Z,972.57
2018-04-27T11:34:03.076Z,972.60
2018-04-27T11:35:02.903Z,972.58
2018-04-27T11:36:02.852Z,972.58
2018-04-27T11:37:02.764Z,972.59
2018-04-27T11:38:02.793Z,972.54
2018-04-27T11:39:02.626Z,972.54
2018-04-27T11:40:02.604Z,972.47
2018-04-27T11:41:02.482Z,972.41
2018-04-27T11:42:02.409Z,972.39
2018-04-27T11:43:02.431Z,972.33
2018-04-27T11:44:02.277Z,972.44
2018-04-27T11:45:02.226Z,972.43
2018-04-27T11:46:02.135Z,972.44
2018-04-27T11:47:02.137Z,972.45
2018-04-27T11:48:01.996Z,972.33
2018-04-27T11:49:01.946Z,972.27
2018-04-27T11:50:01.857Z,972.31
2018-04-27T11:51:01.856Z,972.32
2018-04-27T11:52:01.716Z,972.25
2018-04-27T11:53:01.768Z,972.24
2018-04-27T11:54:01.582Z,972.20
2018-04-27T11:55:01.576Z,972.20
2018-04-27T11:56:01.439Z,972.23
2018-04-27T11:57:01.488Z,972.24
2018-04-27T11:58:01.300Z,972.23
2018-04-27T11:59:01.290Z,972.17
2018-04-27T12:00:01.162Z,972.23
2018-04-27T12:01:01.206Z,972.25
2018-04-27T12:02:01.020Z,972.25
2018-04-27T12:03:01.016Z,972.21
2018-04-27T12:04:00.882Z,972.18
2018-04-27T12:05:00.928Z,972.15
2018-04-27T12:06:01.287Z,972.12
2018-04-27T12:07:00.732Z,972.15
2018-04-27T12:08:00.607Z,972.17
2018-04-27T12:09:00.639Z,972.12
2018-04-27T12:10:00.468Z,972.11
2018-04-27T12:11:00.453Z,972.10
2018-04-27T12:12:00.329Z,972.07
2018-04-27T12:13:00.363Z,972.08
2018-04-27T12:14:00.191Z,972.11
2018-04-27T12:15:00.171Z,972.12
2018-04-27T12:16:00.049Z,972.16
2018-04-27T12:17:00.083Z,972.08
2018-04-27T12:17:59.912Z,972.05
2018-04-27T12:18:59.892Z,972.08
2018-04-27T12:19:59.775Z,972.05
2018-04-27T12:20:59.805Z,971.92
2018-04-27T12:21:59.635Z,971.99
2018-04-27T12:22:59.609Z,971.90
2018-04-27T12:23:59.496Z,971.95
2018-04-27T12:24:59.523Z,972.04
2018-04-27T12:25:59.361Z,972.01
2018-04-27T12:26:59.329Z,972.03
2018-04-27T12:27:59.220Z,971.98